sensor_id;sensor_type;location;lat;lon;timestamp;P1;P4;P2;P0;N10;N4;N25;N1;N05;TS
71906;SPS30;59781;52.090;5.030;2023-03-24T00:01:13;4.29;4.29;4.27;4.02;32.10;32.10;32.08;31.90;27.00;0.57
71906;SPS30;59781;52.090;5.030;2023-03-24T00:03:39;3.94;3.94;3.93;3.71;29.61;29.60;29.59;29.43;24.92;0.56
71906;SPS30;59781;52.090;5.030;2023-03-24T00:06:06;4.20;4.20;4.20;3.96;31.64;31.63;31.62;31.45;26.65;0.57
71906;SPS30;59781;52.090;5.030;2023-03-24T00:08:33;4.09;4.09;4.07;3.82;30.54;30.53;30.52;30.33;25.67;0.58
71906;SPS30;59781;52.090;5.030;2023-03-24T00:11:02;4.12;4.12;4.09;3.85;30.71;30.70;30.69;30.50;25.81;0.57
71906;SPS30;59781;52.090;5.030;2023-03-24T00:13:31;4.33;4.33;4.32;4.06;32.45;32.44;32.42;32.24;27.29;0.56
71906;SPS30;59781;52.090;5.030;2023-03-24T00:16:06;4.25;4.24;4.24;4.00;31.95;31.94;31.93;31.76;26.91;0.56
71906;SPS30;59781;52.090;5.030;2023-03-24T00:18:38;4.21;4.21;4.21;3.98;31.76;31.75;31.74;31.58;26.76;0.53
71906;SPS30;59781;52.090;5.030;2023-03-24T00:21:05;4.15;4.14;4.14;3.90;31.17;31.17;31.15;30.99;26.25;0.55
71906;SPS30;59781;52.090;5.030;2023-03-24T00:23:33;4.21;4.21;4.19;3.95;31.52;31.51;31.50;31.32;26.51;0.57
71906;SPS30;59781;52.090;5.030;2023-03-24T00:26:01;4.07;4.07;4.07;3.84;30.69;30.69;30.68;30.51;25.86;0.55
71906;SPS30;59781;52.090;5.030;2023-03-24T00:28:34;4.02;4.02;4.02;3.80;30.38;30.37;30.36;30.20;25.60;0.53
71906;SPS30;59781;52.090;5.030;2023-03-24T00:31:02;4.37;4.36;4.35;4.10;32.74;32.73;32.71;32.53;27.54;0.56
71906;SPS30;59781;52.090;5.030;2023-03-24T00:33:31;4.51;4.51;4.50;4.24;33.84;33.84;33.82;33.63;28.48;0.56
71906;SPS30;59781;52.090;5.030;2023-03-24T00:36:00;4.31;4.30;4.29;4.05;32.33;32.32;32.31;32.13;27.21;0.56
71906;SPS30;59781;52.090;5.030;2023-03-24T00:38:32;4.05;4.05;4.04;3.81;30.44;30.43;30.42;30.25;25.62;0.55
71906;SPS30;59781;52.090;5.030;2023-03-24T00:40:59;4.36;4.36;4.34;4.08;32.59;32.58;32.57;32.38;27.40;0.56
71906;SPS30;59781;52.090;5.030;2023-03-24T00:43:30;4.29;4.29;4.28;4.05;32.33;32.33;32.32;32.15;27.24;0.55
71906;SPS30;59781;52.090;5.030;2023-03-24T00:45:57;4.37;4.37;4.35;4.09;32.68;32.68;32.66;32.47;27.48;0.57
71906;SPS30;59781;52.090;5.030;2023-03-24T00:48:35;4.40;4.40;4.39;4.13;33.00;33.00;32.98;32.80;27.77;0.55
71906;SPS30;59781;52.090;5.030;2023-03-24T00:51:03;4.23;4.23;4.23;4.00;31.96;31.95;31.94;31.78;26.93;0.54
71906;SPS30;59781;52.090;5.030;2023-03-24T00:53:35;4.24;4.24;4.24;4.01;31.98;31.97;31.96;31.80;26.95;0.54
71906;SPS30;59781;52.090;5.030;2023-03-24T00:56:07;4.41;4.41;4.41;4.17;33.31;33.30;33.29;33.12;28.07;0.53
71906;SPS30;59781;52.090;5.030;2023-03-24T00:58:33;4.62;4.62;4.62;4.37;34.91;34.90;34.89;34.72;29.42;0.53
71906;SPS30;59781;52.090;5.030;2023-03-24T01:00:59;4.43;4.43;4.43;4.19;33.44;33.43;33.42;33.25;28.18;0.53
71906;SPS30;59781;52.090;5.030;2023-03-24T01:03:24;4.65;4.65;4.65;4.39;35.08;35.07;35.06;34.88;29.56;0.52
71906;SPS30;59781;52.090;5.030;2023-03-24T01:05:54;4.76;4.76;4.76;4.50;35.92;35.91;35.90;35.71;30.27;0.53
71906;SPS30;59781;52.090;5.030;2023-03-24T01:08:26;4.61;4.61;4.61;4.36;34.83;34.82;34.81;34.63;29.35;0.53
71906;SPS30;59781;52.090;5.030;2023-03-24T01:10:52;5.04;5.04;5.04;4.77;38.05;38.04;38.03;37.84;32.07;0.50
71906;SPS30;59781;52.090;5.030;2023-03-24T01:13:20;4.81;4.81;4.81;4.55;36.34;36.33;36.32;36.14;30.63;0.49
71906;SPS30;59781;52.090;5.030;2023-03-24T01:15:50;4.99;4.99;4.99;4.72;37.71;37.71;37.69;37.50;31.78;0.52
71906;SPS30;59781;52.090;5.030;2023-03-24T01:18:17;4.74;4.74;4.74;4.48;35.81;35.80;35.79;35.60;30.17;0.53
71906;SPS30;59781;52.090;5.030;2023-03-24T01:20:44;4.81;4.81;4.81;4.54;36.28;36.28;36.27;36.08;30.58;0.53
71906;SPS30;59781;52.090;5.030;2023-03-24T01:23:16;5.16;5.16;5.16;4.88;38.96;38.96;38.94;38.74;32.84;0.52
71906;SPS30;59781;52.090;5.030;2023-03-24T01:25:50;4.73;4.73;4.73;4.47;35.71;35.70;35.69;35.51;30.09;0.53
71906;SPS30;59781;52.090;5.030;2023-03-24T01:28:20;4.67;4.67;4.67;4.41;35.19;35.18;35.17;34.98;29.64;0.54
71906;SPS30;59781;52.090;5.030;2023-03-24T01:30:49;4.50;4.50;4.50;4.26;34.00;33.99;33.98;33.80;28.65;0.54
71906;SPS30;59781;52.090;5.030;2023-03-24T01:33:17;4.51;4.51;4.51;4.26;34.03;34.02;34.01;33.84;28.68;0.52
71906;SPS30;59781;52.090;5.030;2023-03-24T01:35:43;4.50;4.50;4.50;4.25;33.92;33.92;33.90;33.73;28.58;0.54
71906;SPS30;59781;52.090;5.030;2023-03-24T01:38:10;4.77;4.77;4.76;4.48;35.81;35.80;35.79;35.59;30.14;0.55
71906;SPS30;59781;52.090;5.030;2023-03-24T01:40:39;4.34;4.34;4.34;4.10;32.75;32.74;32.73;32.56;27.60;0.52
71906;SPS30;59781;52.090;5.030;2023-03-24T01:43:15;4.52;4.52;4.52;4.27;34.10;34.09;34.08;33.90;28.73;0.53
71906;SPS30;59781;52.090;5.030;2023-03-24T01:48:42;4.62;4.62;4.62;4.37;34.88;34.87;34.86;34.68;29.39;0.49
71906;SPS30;59781;52.090;5.030;2023-03-24T01:51:18;4.73;4.73;4.73;4.47;35.69;35.68;35.67;35.49;30.08;0.48
71906;SPS30;59781;52.090;5.030;2023-03-24T01:53:57;4.50;4.50;4.50;4.25;33.96;33.95;33.94;33.76;28.62;0.50
71906;SPS30;59781;52.090;5.030;2023-03-24T01:56:27;4.90;4.90;4.90;4.64;37.03;37.03;37.02;36.83;31.21;0.51
71906;SPS30;59781;52.090;5.030;2023-03-24T01:59:01;4.44;4.44;4.44;4.20;33.51;33.50;33.49;33.32;28.24;0.50
71906;SPS30;59781;52.090;5.030;2023-03-24T02:02:01;4.90;4.90;4.90;4.64;37.02;37.01;37.00;36.81;31.20;0.49
71906;SPS30;59781;52.090;5.030;2023-03-24T02:04:47;4.80;4.80;4.80;4.54;36.25;36.25;36.24;36.05;30.55;0.50
71906;SPS30;59781;52.090;5.030;2023-03-24T02:07:32;4.90;4.90;4.90;4.64;37.03;37.02;37.01;36.82;31.21;0.53
71906;SPS30;59781;52.090;5.030;2023-03-24T02:10:07;5.06;5.06;5.06;4.79;38.23;38.22;38.21;38.01;32.21;0.54
71906;SPS30;59781;52.090;5.030;2023-03-24T02:12:38;5.22;5.22;5.22;4.94;39.44;39.43;39.42;39.21;33.23;0.53
71906;SPS30;59781;52.090;5.030;2023-03-24T02:15:09;4.90;4.90;4.90;4.63;36.98;36.97;36.96;36.77;31.16;0.52
71906;SPS30;59781;52.090;5.030;2023-03-24T02:17:43;4.98;4.98;4.98;4.71;37.60;37.59;37.58;37.39;31.69;0.51
71906;SPS30;59781;52.090;5.030;2023-03-24T02:40:45;1.80;1.80;1.80;1.70;13.58;13.58;13.58;13.51;11.45;0.55
71906;SPS30;59781;52.090;5.030;2023-03-24T02:46:26;1.83;1.82;1.78;1.65;13.16;13.15;13.14;13.03;10.98;0.58
71906;SPS30;59781;52.090;5.030;2023-03-24T02:49:25;1.93;1.92;1.85;1.68;13.44;13.44;13.42;13.27;11.13;0.59
71906;SPS30;59781;52.090;5.030;2023-03-24T02:52:17;2.35;2.32;2.19;1.91;15.29;15.28;15.25;15.00;12.46;0.64
71906;SPS30;59781;52.090;5.030;2023-03-24T02:55:14;2.17;2.15;2.03;1.78;14.24;14.23;14.20;13.98;11.63;0.65
71906;SPS30;59781;52.090;5.030;2023-03-24T02:58:03;2.52;2.48;2.32;1.99;15.96;15.95;15.91;15.61;12.92;0.67
71906;SPS30;59781;52.090;5.030;2023-03-24T03:00:51;2.70;2.65;2.40;1.97;15.74;15.73;15.67;15.26;12.46;0.70
71906;SPS30;59781;52.090;5.030;2023-03-24T03:03:58;2.46;2.40;2.10;1.65;13.20;13.19;13.12;12.68;10.20;0.73
71906;SPS30;59781;52.090;5.030;2023-03-24T03:06:35;2.94;2.87;2.49;1.92;15.37;15.35;15.27;14.71;11.77;0.74
71906;SPS30;59781;52.090;5.030;2023-03-24T03:09:08;2.82;2.74;2.35;1.76;14.15;14.13;14.04;13.47;10.69;0.76
71906;SPS30;59781;52.090;5.030;2023-03-24T03:11:42;2.95;2.86;2.41;1.76;14.14;14.12;14.02;13.39;10.52;0.78
71906;SPS30;59781;52.090;5.030;2023-03-24T03:14:18;3.45;3.34;2.77;1.96;15.71;15.68;15.56;14.76;11.45;0.80
71906;SPS30;59781;52.090;5.030;2023-03-24T03:16:56;3.59;3.46;2.84;1.95;15.65;15.63;15.49;14.62;11.22;0.82
71906;SPS30;59781;52.090;5.030;2023-03-24T03:19:36;3.92;3.77;3.02;1.98;15.92;15.90;15.73;14.71;11.07;0.86
71906;SPS30;59781;52.090;5.030;2023-03-24T03:22:16;4.49;4.30;3.37;2.10;16.91;16.87;16.67;15.41;11.32;0.89
71906;SPS30;59781;52.090;5.030;2023-03-24T03:24:50;5.12;4.91;3.87;2.44;19.64;19.60;19.38;17.96;13.28;0.88
71906;SPS30;59781;52.090;5.030;2023-03-24T03:27:29;3.86;3.71;2.95;1.91;15.34;15.31;15.15;14.12;10.56;0.85
71906;SPS30;59781;52.090;5.030;2023-03-24T03:30:14;4.35;4.18;3.34;2.18;17.55;17.52;17.33;16.19;12.16;0.84
71906;SPS30;59781;52.090;5.030;2023-03-24T03:32:55;3.81;3.66;2.92;1.89;15.20;15.17;15.01;13.99;10.48;0.86
71906;SPS30;59781;52.090;5.030;2023-03-24T03:35:44;4.08;3.92;3.13;2.05;16.49;16.46;16.29;15.22;11.44;0.85
71906;SPS30;59781;52.090;5.030;2023-03-24T03:40:49;5.32;5.10;4.03;2.56;20.65;20.60;20.37;18.92;14.05;0.84
71906;SPS30;59781;52.090;5.030;2023-03-24T03:43:23;4.19;4.04;3.25;2.15;17.28;17.25;17.08;16.00;12.09;0.81
71906;SPS30;59781;52.090;5.030;2023-03-24T03:45:55;4.87;4.69;3.76;2.47;19.89;19.85;19.65;18.38;13.86;0.81
71906;SPS30;59781;52.090;5.030;2023-03-24T03:48:30;4.71;4.54;3.69;2.50;20.12;20.08;19.90;18.72;14.29;0.81
71906;SPS30;59781;52.090;5.030;2023-03-24T03:50:59;5.02;4.84;3.92;2.64;21.22;21.19;20.99;19.72;15.02;0.84
71906;SPS30;59781;52.090;5.030;2023-03-24T03:53:27;4.89;4.72;3.89;2.72;21.82;21.79;21.60;20.45;15.79;0.82
71906;SPS30;59781;52.090;5.030;2023-03-24T03:56:37;4.49;4.36;3.72;2.77;22.23;22.21;22.06;21.14;16.73;0.78
71906;SPS30;59781;52.090;5.030;2023-03-24T03:59:22;4.85;4.72;4.08;3.11;24.97;24.94;24.80;23.86;19.03;0.75
71906;SPS30;59781;52.090;5.030;2023-03-24T04:05:29;4.68;4.55;3.92;2.97;23.84;23.81;23.67;22.76;18.12;0.75
71906;SPS30;59781;52.090;5.030;2023-03-24T04:08:13;4.70;4.57;3.95;3.00;24.04;24.01;23.87;22.96;18.29;0.74
71906;SPS30;59781;52.090;5.030;2023-03-24T04:14:40;3.68;3.59;3.15;2.47;19.81;19.79;19.69;19.04;15.33;0.74
71906;SPS30;59781;52.090;5.030;2023-03-24T04:20:36;4.01;3.90;3.38;2.58;20.71;20.68;20.57;19.80;15.81;0.72
71906;SPS30;59781;52.090;5.030;2023-03-24T04:34:43;5.64;5.47;4.61;3.35;26.88;26.84;26.65;25.42;19.95;0.74
71906;SPS30;59781;52.090;5.030;2023-03-24T04:37:38;6.71;6.48;5.30;3.63;29.20;29.15;28.89;27.26;20.91;0.78
71906;SPS30;59781;52.090;5.030;2023-03-24T04:40:14;5.95;5.73;4.65;3.13;25.16;25.12;24.88;23.39;17.81;0.78
71906;SPS30;59781;52.090;5.030;2023-03-24T04:42:46;6.42;6.17;4.94;3.23;25.97;25.92;25.65;23.96;18.01;0.81
71906;SPS30;59781;52.090;5.030;2023-03-24T04:45:24;6.70;6.43;5.11;3.29;26.50;26.45;26.17;24.37;18.20;0.83
71906;SPS30;59781;52.090;5.030;2023-03-24T04:48:09;7.44;7.13;5.55;3.41;27.49;27.43;27.09;24.96;18.23;0.87
71906;SPS30;59781;52.090;5.030;2023-03-24T04:50:54;8.13;7.77;5.95;3.50;28.21;28.14;27.75;25.31;18.07;0.89
71906;SPS30;59781;52.090;5.030;2023-03-24T04:53:26;8.33;7.94;5.98;3.37;27.23;27.16;26.73;24.13;16.81;0.91
71906;SPS30;59781;52.090;5.030;2023-03-24T04:56:05;8.56;8.15;6.14;3.46;27.97;27.89;27.46;24.78;17.27;0.92
71906;SPS30;59781;52.090;5.030;2023-03-24T04:59:13;9.16;8.73;6.60;3.75;30.28;30.20;29.74;26.90;18.84;0.93
71906;SPS30;59781;52.090;5.030;2023-03-24T05:01:41;8.88;8.47;6.44;3.72;30.01;29.93;29.49;26.78;18.92;0.91
71906;SPS30;59781;52.090;5.030;2023-03-24T05:04:34;8.64;8.24;6.28;3.64;29.42;29.35;28.92;26.30;18.64;0.92
71906;SPS30;59781;52.090;5.030;2023-03-24T05:07:14;9.60;9.15;6.87;3.84;31.06;30.97;30.48;27.46;19.05;0.94
71906;SPS30;59781;52.090;5.030;2023-03-24T05:09:42;9.64;9.17;6.86;3.78;30.56;30.47;29.97;26.89;18.49;0.95
71906;SPS30;59781;52.090;5.030;2023-03-24T05:12:08;10.10;9.60;7.13;3.86;31.26;31.17;30.64;27.36;18.61;0.97
71906;SPS30;59781;52.090;5.030;2023-03-24T05:14:51;10.90;10.35;7.59;3.95;31.98;31.88;31.28;27.64;18.30;1.00
71906;SPS30;59781;52.090;5.030;2023-03-24T05:17:17;10.40;9.88;7.27;3.83;31.02;30.92;30.36;26.91;17.97;0.99
71906;SPS30;59781;52.090;5.030;2023-03-24T05:19:43;11.75;11.16;8.19;4.27;34.62;34.51;33.87;29.95;19.88;0.98
71906;SPS30;59781;52.090;5.030;2023-03-24T05:22:09;10.04;9.55;7.13;3.91;31.63;31.54;31.02;27.80;19.07;0.94
71906;SPS30;59781;52.090;5.030;2023-03-24T05:24:35;10.62;10.12;7.65;4.34;35.08;34.99;34.45;31.15;21.81;0.93
71906;SPS30;59781;52.090;5.030;2023-03-24T05:27:01;11.71;11.17;8.50;4.92;39.75;39.65;39.07;35.50;25.14;0.90
71906;SPS30;59781;52.090;5.030;2023-03-24T05:29:27;10.23;9.76;7.39;4.23;34.20;34.12;33.60;30.45;21.43;0.92
71906;SPS30;59781;52.090;5.030;2023-03-24T05:31:53;10.48;9.98;7.50;4.20;33.95;33.86;33.32;30.02;20.85;0.94
71906;SPS30;59781;52.090;5.030;2023-03-24T05:34:21;10.20;9.71;7.27;4.02;32.48;32.39;31.86;28.62;19.72;0.95
71906;SPS30;59781;52.090;5.030;2023-03-24T05:36:53;11.57;10.99;8.13;4.34;35.12;35.01;34.39;30.60;20.61;0.99
71906;SPS30;59781;52.090;5.030;2023-03-24T05:39:20;11.62;11.04;8.15;4.34;35.10;35.00;34.37;30.56;20.54;1.01
71906;SPS30;59781;52.090;5.030;2023-03-24T05:41:56;10.67;10.13;7.42;3.86;31.24;31.14;30.56;26.99;17.85;1.01
71906;SPS30;59781;52.090;5.030;2023-03-24T05:44:21;11.91;11.32;8.34;4.41;35.73;35.62;34.98;31.04;20.79;0.99
71906;SPS30;59781;52.090;5.030;2023-03-24T05:47:02;11.88;11.27;8.19;4.15;33.64;33.53;32.87;28.82;18.71;1.01
71906;SPS30;59781;52.090;5.030;2023-03-24T05:49:28;12.49;11.84;8.62;4.39;35.56;35.44;34.74;30.50;19.87;1.00
71906;SPS30;59781;52.090;5.030;2023-03-24T05:51:55;11.60;11.01;8.02;4.10;33.22;33.11;32.46;28.53;18.64;1.00
71906;SPS30;59781;52.090;5.030;2023-03-24T05:54:20;11.53;10.94;7.99;4.11;33.30;33.19;32.55;28.66;18.82;1.01
71906;SPS30;59781;52.090;5.030;2023-03-24T05:56:50;12.44;11.79;8.52;4.25;34.48;34.36;33.66;29.37;18.84;1.05
71906;SPS30;59781;52.090;5.030;2023-03-24T05:59:38;12.43;11.79;8.62;4.45;36.06;35.94;35.25;31.07;20.45;1.02
71906;SPS30;59781;52.090;5.030;2023-03-24T06:02:33;11.10;10.55;7.80;4.17;33.76;33.65;33.06;29.43;19.85;0.99
71906;SPS30;59781;52.090;5.030;2023-03-24T06:05:04;9.91;9.42;7.01;3.82;30.87;30.78;30.26;27.06;18.46;0.97
71906;SPS30;59781;52.090;5.030;2023-03-24T06:07:32;9.99;9.52;7.16;4.02;32.46;32.37;31.86;28.72;19.96;0.95
71906;SPS30;59781;52.090;5.030;2023-03-24T06:09:58;9.66;9.22;7.03;4.08;32.98;32.89;32.42;29.48;20.92;0.92
71906;SPS30;59781;52.090;5.030;2023-03-24T06:12:32;8.81;8.42;6.51;3.91;31.57;31.50;31.08;28.50;20.60;0.89
71906;SPS30;59781;52.090;5.030;2023-03-24T06:15:01;7.88;7.57;6.01;3.86;31.09;31.03;30.69;28.56;21.31;0.84
71906;SPS30;59781;52.090;5.030;2023-03-24T06:17:28;7.98;7.65;6.03;3.80;30.61;30.55;30.20;27.99;20.70;0.84
71906;SPS30;59781;52.090;5.030;2023-03-24T06:19:56;7.70;7.39;5.86;3.74;30.16;30.10;29.76;27.68;20.61;0.83
71906;SPS30;59781;52.090;5.030;2023-03-24T06:22:48;8.41;8.07;6.36;4.01;32.32;32.25;31.88;29.56;21.88;0.83
71906;SPS30;59781;52.090;5.030;2023-03-24T06:25:18;8.00;7.67;6.01;3.74;30.13;30.06;29.70;27.45;20.18;0.84
71906;SPS30;59781;52.090;5.030;2023-03-24T06:28:08;8.40;8.06;6.37;4.05;32.59;32.53;32.16;29.86;22.17;0.83
71906;SPS30;59781;52.090;5.030;2023-03-24T06:30:36;9.09;8.70;6.77;4.14;33.34;33.27;32.85;30.24;22.03;0.87
71906;SPS30;59781;52.090;5.030;2023-03-24T06:33:03;9.27;8.86;6.83;4.08;32.95;32.87;32.43;29.69;21.39;0.88
71906;SPS30;59781;52.090;5.030;2023-03-24T06:35:29;10.22;9.76;7.46;4.37;35.29;35.21;34.71;31.63;22.54;0.90
71906;SPS30;59781;52.090;5.030;2023-03-24T06:38:02;9.07;8.69;6.79;4.20;33.85;33.78;33.37;30.80;22.58;0.86
71906;SPS30;59781;52.090;5.030;2023-03-24T06:40:29;8.26;7.94;6.31;4.07;32.80;32.73;32.38;30.16;22.55;0.83
71906;SPS30;59781;52.090;5.030;2023-03-24T06:42:56;8.37;8.04;6.38;4.10;33.00;32.94;32.57;30.32;22.61;0.85
71906;SPS30;59781;52.090;5.030;2023-03-24T06:45:22;8.23;7.90;6.24;3.96;31.87;31.81;31.45;29.19;21.65;0.86
71906;SPS30;59781;52.090;5.030;2023-03-24T06:47:52;7.81;7.52;6.09;4.08;32.82;32.76;32.44;30.47;23.16;0.82
71906;SPS30;59781;52.090;5.030;2023-03-24T06:50:22;6.77;6.55;5.45;3.87;31.09;31.05;30.80;29.26;22.76;0.77
71906;SPS30;59781;52.090;5.030;2023-03-24T06:52:52;6.61;6.40;5.31;3.75;30.12;30.07;29.83;28.31;21.97;0.79
71906;SPS30;59781;52.090;5.030;2023-03-24T06:55:19;6.43;6.23;5.21;3.74;30.02;29.98;29.76;28.32;22.11;0.77
71906;SPS30;59781;52.090;5.030;2023-03-24T06:57:46;6.18;6.00;5.08;3.73;29.92;29.88;29.68;28.37;22.33;0.75
71906;SPS30;59781;52.090;5.030;2023-03-24T07:00:21;6.60;6.39;5.37;3.88;31.18;31.14;30.92;29.47;23.08;0.75
71906;SPS30;59781;52.090;5.030;2023-03-24T07:03:07;6.72;6.52;5.53;4.07;32.70;32.66;32.44;31.02;24.45;0.73
71906;SPS30;59781;52.090;5.030;2023-03-24T07:05:37;6.19;6.00;5.03;3.63;29.14;29.10;28.88;27.52;21.53;0.75
71906;SPS30;59781;52.090;5.030;2023-03-24T07:08:05;7.01;6.78;5.64;4.00;32.12;32.08;31.83;30.22;23.50;0.77
71906;SPS30;59781;52.090;5.030;2023-03-24T07:10:35;6.57;6.36;5.28;3.73;30.00;29.96;29.72;28.21;21.91;0.77
71906;SPS30;59781;52.090;5.030;2023-03-24T07:13:04;6.41;6.21;5.23;3.79;30.43;30.39;30.17;28.78;22.56;0.75
71906;SPS30;59781;52.090;5.030;2023-03-24T07:15:33;6.37;6.17;5.15;3.69;29.63;29.59;29.36;27.93;21.79;0.77
71906;SPS30;59781;52.090;5.030;2023-03-24T07:18:00;6.51;6.31;5.31;3.86;30.96;30.92;30.70;29.28;22.96;0.77
71906;SPS30;59781;52.090;5.030;2023-03-24T07:20:35;6.88;6.66;5.60;4.05;32.49;32.44;32.21;30.70;24.04;0.77
71906;SPS30;59781;52.090;5.030;2023-03-24T07:23:09;7.22;6.98;5.77;4.05;32.54;32.49;32.22;30.53;23.64;0.77
71906;SPS30;59781;52.090;5.030;2023-03-24T07:26:14;7.01;6.76;5.52;3.77;30.34;30.29;30.02;28.30;21.69;0.78
71906;SPS30;59781;52.090;5.030;2023-03-24T07:28:46;7.51;7.23;5.85;3.92;31.57;31.51;31.21;29.31;22.28;0.79
71906;SPS30;59781;52.090;5.030;2023-03-24T07:31:22;6.91;6.67;5.45;3.74;30.03;29.98;29.72;28.03;21.50;0.77
71906;SPS30;59781;52.090;5.030;2023-03-24T07:33:55;6.42;6.21;5.16;3.65;29.33;29.28;29.05;27.58;21.42;0.75
71906;SPS30;59781;52.090;5.030;2023-03-24T07:36:21;6.15;5.95;4.92;3.45;27.75;27.71;27.48;26.05;20.17;0.76
71906;SPS30;59781;52.090;5.030;2023-03-24T07:38:46;6.73;6.49;5.30;3.62;29.09;29.05;28.78;27.13;20.78;0.79
71906;SPS30;59781;52.090;5.030;2023-03-24T07:41:20;6.79;6.55;5.34;3.64;29.29;29.24;28.97;27.30;20.90;0.77
71906;SPS30;59781;52.090;5.030;2023-03-24T07:43:51;7.03;6.77;5.51;3.74;30.10;30.05;29.78;28.04;21.42;0.77
71906;SPS30;59781;52.090;5.030;2023-03-24T07:46:32;6.82;6.59;5.43;3.78;30.36;30.31;30.05;28.44;21.95;0.74
71906;SPS30;59781;52.090;5.030;2023-03-24T07:48:58;6.80;6.56;5.36;3.68;29.57;29.53;29.26;27.61;21.19;0.76
71906;SPS30;59781;52.090;5.030;2023-03-24T07:51:24;6.04;5.85;4.90;3.52;28.26;28.22;28.01;26.67;20.84;0.74
71906;SPS30;59781;52.090;5.030;2023-03-24T07:54:04;6.20;6.01;5.05;3.65;29.33;29.29;29.07;27.71;21.71;0.76
71906;SPS30;59781;52.090;5.030;2023-03-24T07:56:35;5.91;5.73;4.83;3.53;28.33;28.29;28.09;26.82;21.08;0.78
71906;SPS30;59781;52.090;5.030;2023-03-24T07:59:01;5.97;5.79;4.88;3.55;28.51;28.47;28.27;26.98;21.18;0.77
71906;SPS30;59781;52.090;5.030;2023-03-24T08:01:55;6.13;5.95;5.04;3.70;29.72;29.68;29.48;28.18;22.20;0.76
71906;SPS30;59781;52.090;5.030;2023-03-24T08:04:44;6.01;5.82;4.88;3.52;28.28;28.24;28.03;26.71;20.89;0.76
71906;SPS30;59781;52.090;5.030;2023-03-24T08:07:35;5.89;5.72;4.86;3.59;28.84;28.80;28.61;27.38;21.62;0.75
71906;SPS30;59781;52.090;5.030;2023-03-24T08:10:01;6.46;6.26;5.23;3.76;30.16;30.12;29.90;28.45;22.22;0.76
71906;SPS30;59781;52.090;5.030;2023-03-24T08:12:30;6.46;6.26;5.22;3.73;29.97;29.93;29.70;28.24;22.02;0.75
71906;SPS30;59781;52.090;5.030;2023-03-24T08:14:56;5.93;5.74;4.81;3.46;27.74;27.71;27.50;26.18;20.45;0.77
71906;SPS30;59781;52.090;5.030;2023-03-24T08:17:22;5.57;5.42;4.66;3.52;28.20;28.16;28.00;26.89;21.38;0.74
71906;SPS30;59781;52.090;5.030;2023-03-24T08:19:47;5.05;4.91;4.23;3.21;25.72;25.69;25.54;24.55;19.54;0.72
71906;SPS30;59781;52.090;5.030;2023-03-24T08:22:13;6.15;5.99;5.14;3.87;31.07;31.04;30.85;29.62;23.54;0.73
71906;SPS30;59781;52.090;5.030;2023-03-24T08:24:39;5.47;5.32;4.60;3.51;28.15;28.12;27.96;26.90;21.47;0.73
71906;SPS30;59781;52.090;5.030;2023-03-24T08:27:04;6.09;5.92;5.11;3.87;31.07;31.03;30.85;29.66;23.62;0.73
71906;SPS30;59781;52.090;5.030;2023-03-24T08:29:31;5.91;5.77;5.07;3.98;31.88;31.85;31.70;30.65;24.68;0.72
71906;SPS30;59781;52.090;5.030;2023-03-24T08:31:59;5.22;5.12;4.63;3.80;30.42;30.40;30.28;29.51;24.09;0.68
71906;SPS30;59781;52.090;5.030;2023-03-24T08:34:26;5.03;4.93;4.48;3.70;29.63;29.61;29.50;28.78;23.54;0.68
71906;SPS30;59781;52.090;5.030;2023-03-24T08:36:52;5.13;5.02;4.50;3.64;29.16;29.13;29.01;28.20;22.93;0.70
71906;SPS30;59781;52.090;5.030;2023-03-24T08:39:18;5.05;4.93;4.34;3.42;27.39;27.36;27.23;26.35;21.24;0.70
71906;SPS30;59781;52.090;5.030;2023-03-24T08:41:44;4.74;4.64;4.12;3.30;26.42;26.40;26.28;25.50;20.66;0.69
71906;SPS30;59781;52.090;5.030;2023-03-24T08:44:11;5.69;5.55;4.81;3.69;29.58;29.54;29.38;28.30;22.62;0.73
71906;SPS30;59781;52.090;5.030;2023-03-24T08:46:38;5.30;5.16;4.47;3.42;27.42;27.39;27.23;26.22;20.94;0.72
71906;SPS30;59781;52.090;5.030;2023-03-24T08:49:04;5.56;5.42;4.68;3.58;28.67;28.64;28.48;27.41;21.87;0.73
71906;SPS30;59781;52.090;5.030;2023-03-24T08:51:31;5.08;4.94;4.27;3.26;26.12;26.09;25.94;24.96;19.91;0.72
71906;SPS30;59781;52.090;5.030;2023-03-24T08:53:57;5.21;5.06;4.35;3.28;26.31;26.28;26.12;25.08;19.93;0.71
71906;SPS30;59781;52.090;5.030;2023-03-24T08:56:23;5.95;5.78;4.90;3.60;28.88;28.85;28.65;27.39;21.58;0.73
71906;SPS30;59781;52.090;5.030;2023-03-24T08:58:50;5.68;5.52;4.72;3.52;28.24;28.20;28.02;26.87;21.28;0.72
71906;SPS30;59781;52.090;5.030;2023-03-24T09:01:18;5.22;5.10;4.48;3.52;28.19;28.17;28.03;27.10;21.82;0.69
71906;SPS30;59781;52.090;5.030;2023-03-24T09:03:47;4.92;4.81;4.31;3.49;27.92;27.89;27.78;27.00;21.94;0.68
71906;SPS30;59781;52.090;5.030;2023-03-24T09:06:13;5.58;5.45;4.82;3.82;30.62;30.59;30.45;29.50;23.82;0.70
71906;SPS30;59781;52.090;5.030;2023-03-24T09:08:40;5.58;5.44;4.74;3.67;29.43;29.40;29.24;28.21;22.62;0.71
71906;SPS30;59781;52.090;5.030;2023-03-24T09:11:06;5.36;5.22;4.50;3.42;27.44;27.41;27.25;26.21;20.88;0.69
71906;SPS30;59781;52.090;5.030;2023-03-24T09:13:44;5.66;5.50;4.70;3.51;28.20;28.17;27.99;26.84;21.26;0.71
71906;SPS30;59781;52.090;5.030;2023-03-24T09:16:11;5.90;5.73;4.86;3.58;28.77;28.73;28.54;27.30;21.53;0.73
71906;SPS30;59781;52.090;5.030;2023-03-24T09:18:37;5.28;5.14;4.48;3.46;27.75;27.72;27.57;26.59;21.30;0.71
71906;SPS30;59781;52.090;5.030;2023-03-24T09:21:04;5.47;5.33;4.66;3.61;28.96;28.93;28.78;27.77;22.28;0.71
71906;SPS30;59781;52.090;5.030;2023-03-24T09:23:31;5.74;5.61;4.97;3.95;31.63;31.60;31.45;30.48;24.63;0.71
71906;SPS30;59781;52.090;5.030;2023-03-24T09:25:58;5.13;5.01;4.43;3.51;28.15;28.13;27.99;27.12;21.91;0.71
71906;SPS30;59781;52.090;5.030;2023-03-24T09:28:26;5.03;4.92;4.36;3.47;27.77;27.75;27.62;26.77;21.64;0.71
71906;SPS30;59781;52.090;5.030;2023-03-24T09:30:56;5.11;5.00;4.45;3.56;28.54;28.51;28.39;27.55;22.33;0.70
71906;SPS30;59781;52.090;5.030;2023-03-24T09:33:26;4.96;4.86;4.37;3.57;28.56;28.53;28.42;27.66;22.53;0.67
71906;SPS30;59781;52.090;5.030;2023-03-24T09:35:54;4.93;4.84;4.38;3.61;28.87;28.84;28.74;28.01;22.89;0.66
71906;SPS30;59781;52.090;5.030;2023-03-24T09:38:26;5.13;5.02;4.48;3.60;28.84;28.81;28.69;27.85;22.60;0.69
71906;SPS30;59781;52.090;5.030;2023-03-24T09:40:54;4.93;4.84;4.35;3.55;28.41;28.39;28.27;27.52;22.42;0.68
71906;SPS30;59781;52.090;5.030;2023-03-24T09:43:46;4.39;4.30;3.84;3.10;24.86;24.84;24.74;24.04;19.53;0.67
71906;SPS30;59781;52.090;5.030;2023-03-24T09:46:42;4.63;4.54;4.10;3.37;26.99;26.97;26.87;26.18;21.38;0.67
71906;SPS30;59781;52.090;5.030;2023-03-24T09:49:21;4.25;4.15;3.70;2.96;23.75;23.73;23.63;22.93;18.59;0.70
71906;SPS30;59781;52.090;5.030;2023-03-24T09:51:54;4.37;4.28;3.79;3.02;24.16;24.13;24.02;23.29;18.83;0.71
71906;SPS30;59781;52.090;5.030;2023-03-24T09:57:31;4.88;4.75;4.09;3.10;24.87;24.84;24.70;23.74;18.90;0.73
71906;SPS30;59781;52.090;5.030;2023-03-24T10:00:15;4.64;4.51;3.86;2.89;23.22;23.19;23.05;22.11;17.53;0.73
71906;SPS30;59781;52.090;5.030;2023-03-24T10:02:45;4.73;4.60;3.94;2.95;23.68;23.65;23.50;22.55;17.88;0.72
71906;SPS30;59781;52.090;5.030;2023-03-24T10:05:14;5.34;5.19;4.42;3.28;26.34;26.30;26.13;25.03;19.79;0.75
71906;SPS30;59781;52.090;5.030;2023-03-24T10:13:44;4.79;4.66;3.98;2.97;23.84;23.81;23.66;22.68;17.96;0.73
71906;SPS30;59781;52.090;5.030;2023-03-24T10:16:30;4.92;4.79;4.12;3.12;24.99;24.96;24.81;23.84;18.97;0.74
71906;SPS30;59781;52.090;5.030;2023-03-24T10:22:10;4.92;4.76;3.98;2.86;22.95;22.92;22.75;21.65;16.91;0.78
71906;SPS30;59781;52.090;5.030;2023-03-24T10:25:14;5.38;5.19;4.25;2.92;23.51;23.47;23.27;21.96;16.87;0.80
71906;SPS30;59781;52.090;5.030;2023-03-24T10:27:56;5.62;5.42;4.45;3.07;24.69;24.65;24.43;23.08;17.75;0.81
71906;SPS30;59781;52.090;5.030;2023-03-24T10:30:33;5.84;5.64;4.62;3.18;25.55;25.51;25.29;23.88;18.35;0.80
71906;SPS30;59781;52.090;5.030;2023-03-24T10:33:09;5.16;4.99;4.13;2.90;23.32;23.28;23.09;21.89;16.96;0.79
71906;SPS30;59781;52.090;5.030;2023-03-24T10:35:38;5.25;5.07;4.17;2.89;23.26;23.23;23.03;21.78;16.79;0.79
71906;SPS30;59781;52.090;5.030;2023-03-24T10:38:17;5.44;5.27;4.38;3.11;25.01;24.98;24.78;23.54;18.31;0.78